sensor_id;sensor_type;location;lat;lon;timestamp;P1;durP1;ratioP1;P2;durP2;ratioP2
56267;SDS011;42175;46.930;9.532;2023-09-08T00:00:00;15.30;;;10.65;;
56267;SDS011;42175;46.930;9.532;2023-09-08T00:02:26;14.35;;;10.55;;
56267;SDS011;42175;46.930;9.532;2023-09-08T00:04:52;13.38;;;11.30;;
56267;SDS011;42175;46.930;9.532;2023-09-08T00:07:19;15.73;;;11.35;;
56267;SDS011;42175;46.930;9.532;2023-09-08T00:09:45;19.73;;;11.45;;
56267;SDS011;42175;46.930;9.532;2023-09-08T00:12:11;16.80;;;11.07;;
56267;SDS011;42175;46.930;9.532;2023-09-08T00:14:37;12.20;;;10.45;;
56267;SDS011;42175;46.930;9.532;2023-09-08T00:17:04;16.13;;;11.48;;
56267;SDS011;42175;46.930;9.532;2023-09-08T00:19:29;14.30;;;11.30;;
56267;SDS011;42175;46.930;9.532;2023-09-08T00:21:56;13.43;;;11.90;;
56267;SDS011;42175;46.930;9.532;2023-09-08T00:24:22;13.88;;;11.10;;
56267;SDS011;42175;46.930;9.532;2023-09-08T00:26:48;12.57;;;11.25;;
56267;SDS011;42175;46.930;9.532;2023-09-08T00:29:13;11.52;;;10.30;;
56267;SDS011;42175;46.930;9.532;2023-09-08T00:31:39;13.18;;;10.18;;
56267;SDS011;42175;46.930;9.532;2023-09-08T00:34:05;15.25;;;11.80;;
56267;SDS011;42175;46.930;9.532;2023-09-08T00:36:31;12.95;;;11.63;;
56267;SDS011;42175;46.930;9.532;2023-09-08T00:38:57;12.05;;;10.75;;
56267;SDS011;42175;46.930;9.532;2023-09-08T00:41:23;13.98;;;11.25;;
56267;SDS011;42175;46.930;9.532;2023-09-08T00:43:49;14.18;;;11.18;;
56267;SDS011;42175;46.930;9.532;2023-09-08T00:46:15;18.20;;;10.77;;
56267;SDS011;42175;46.930;9.532;2023-09-08T00:48:42;12.90;;;11.15;;
56267;SDS011;42175;46.930;9.532;2023-09-08T00:51:08;15.93;;;11.52;;
56267;SDS011;42175;46.930;9.532;2023-09-08T00:53:37;16.98;;;10.43;;
56267;SDS011;42175;46.930;9.532;2023-09-08T00:56:03;11.80;;;10.57;;
56267;SDS011;42175;46.930;9.532;2023-09-08T00:58:30;11.95;;;10.10;;
56267;SDS011;42175;46.930;9.532;2023-09-08T01:00:56;15.15;;;10.45;;
56267;SDS011;42175;46.930;9.532;2023-09-08T01:03:23;14.52;;;10.50;;
56267;SDS011;42175;46.930;9.532;2023-09-08T01:05:49;12.00;;;10.45;;
56267;SDS011;42175;46.930;9.532;2023-09-08T01:08:15;16.25;;;10.77;;
56267;SDS011;42175;46.930;9.532;2023-09-08T01:10:42;14.48;;;11.07;;
56267;SDS011;42175;46.930;9.532;2023-09-08T01:13:09;11.43;;;9.75;;
56267;SDS011;42175;46.930;9.532;2023-09-08T01:15:35;12.68;;;10.60;;
56267;SDS011;42175;46.930;9.532;2023-09-08T01:18:01;15.65;;;10.77;;
56267;SDS011;42175;46.930;9.532;2023-09-08T01:29:39;11.35;;;10.18;;
56267;SDS011;42175;46.930;9.532;2023-09-08T01:32:06;10.98;;;9.73;;
56267;SDS011;42175;46.930;9.532;2023-09-08T01:34:34;11.43;;;9.88;;
56267;SDS011;42175;46.930;9.532;2023-09-08T01:37:04;13.27;;;10.40;;
56267;SDS011;42175;46.930;9.532;2023-09-08T01:39:32;13.63;;;10.02;;
56267;SDS011;42175;46.930;9.532;2023-09-08T01:41:57;10.65;;;9.55;;
56267;SDS011;42175;46.930;9.532;2023-09-08T01:44:23;14.73;;;10.60;;
56267;SDS011;42175;46.930;9.532;2023-09-08T01:46:49;11.60;;;10.27;;
56267;SDS011;42175;46.930;9.532;2023-09-08T01:49:16;11.40;;;9.85;;
56267;SDS011;42175;46.930;9.532;2023-09-08T01:51:42;11.32;;;9.73;;
56267;SDS011;42175;46.930;9.532;2023-09-08T01:54:08;14.15;;;10.20;;
56267;SDS011;42175;46.930;9.532;2023-09-08T01:56:34;12.23;;;9.80;;
56267;SDS011;42175;46.930;9.532;2023-09-08T01:59:00;12.55;;;10.05;;
56267;SDS011;42175;46.930;9.532;2023-09-08T02:01:26;14.40;;;10.93;;
56267;SDS011;42175;46.930;9.532;2023-09-08T02:03:52;13.27;;;10.13;;
56267;SDS011;42175;46.930;9.532;2023-09-08T02:06:17;15.75;;;9.90;;
56267;SDS011;42175;46.930;9.532;2023-09-08T02:08:43;12.45;;;10.35;;
56267;SDS011;42175;46.930;9.532;2023-09-08T02:11:09;12.73;;;9.60;;
56267;SDS011;42175;46.930;9.532;2023-09-08T02:13:34;11.02;;;9.63;;
56267;SDS011;42175;46.930;9.532;2023-09-08T02:16:00;16.55;;;9.88;;
56267;SDS011;42175;46.930;9.532;2023-09-08T02:18:26;12.93;;;10.38;;
56267;SDS011;42175;46.930;9.532;2023-09-08T02:20:53;14.77;;;11.40;;
56267;SDS011;42175;46.930;9.532;2023-09-08T02:23:19;11.52;;;10.05;;
56267;SDS011;42175;46.930;9.532;2023-09-08T02:25:45;10.02;;;9.02;;
56267;SDS011;42175;46.930;9.532;2023-09-08T02:28:10;12.80;;;9.52;;
56267;SDS011;42175;46.930;9.532;2023-09-08T02:30:36;12.52;;;9.63;;
56267;SDS011;42175;46.930;9.532;2023-09-08T02:33:02;14.13;;;9.90;;
56267;SDS011;42175;46.930;9.532;2023-09-08T02:35:28;16.75;;;9.32;;
56267;SDS011;42175;46.930;9.532;2023-09-08T02:37:54;13.45;;;9.25;;
56267;SDS011;42175;46.930;9.532;2023-09-08T02:40:19;10.93;;;9.82;;
56267;SDS011;42175;46.930;9.532;2023-09-08T02:42:45;13.20;;;9.82;;
56267;SDS011;42175;46.930;9.532;2023-09-08T02:45:11;10.85;;;9.70;;
56267;SDS011;42175;46.930;9.532;2023-09-08T02:47:37;14.38;;;8.88;;
56267;SDS011;42175;46.930;9.532;2023-09-08T02:50:03;12.18;;;9.70;;
56267;SDS011;42175;46.930;9.532;2023-09-08T02:52:29;11.75;;;9.05;;
56267;SDS011;42175;46.930;9.532;2023-09-08T02:54:55;12.85;;;9.57;;
56267;SDS011;42175;46.930;9.532;2023-09-08T02:57:21;12.65;;;9.32;;
56267;SDS011;42175;46.930;9.532;2023-09-08T02:59:50;13.13;;;9.43;;
56267;SDS011;42175;46.930;9.532;2023-09-08T03:02:16;12.02;;;9.63;;
56267;SDS011;42175;46.930;9.532;2023-09-08T03:04:42;14.73;;;9.70;;
56267;SDS011;42175;46.930;9.532;2023-09-08T03:07:08;11.90;;;10.05;;
56267;SDS011;42175;46.930;9.532;2023-09-08T03:09:34;13.60;;;9.35;;
56267;SDS011;42175;46.930;9.532;2023-09-08T03:12:00;10.75;;;9.75;;
56267;SDS011;42175;46.930;9.532;2023-09-08T03:14:25;16.52;;;9.70;;
56267;SDS011;42175;46.930;9.532;2023-09-08T03:16:51;12.18;;;8.40;;
56267;SDS011;42175;46.930;9.532;2023-09-08T03:19:17;15.73;;;9.45;;
56267;SDS011;42175;46.930;9.532;2023-09-08T03:21:43;11.05;;;9.38;;
56267;SDS011;42175;46.930;9.532;2023-09-08T03:24:09;10.52;;;9.43;;
56267;SDS011;42175;46.930;9.532;2023-09-08T03:26:34;14.90;;;9.82;;
56267;SDS011;42175;46.930;9.532;2023-09-08T03:29:00;13.50;;;9.35;;
56267;SDS011;42175;46.930;9.532;2023-09-08T03:31:26;12.98;;;9.85;;
56267;SDS011;42175;46.930;9.532;2023-09-08T03:33:52;12.18;;;8.82;;
56267;SDS011;42175;46.930;9.532;2023-09-08T03:36:18;11.43;;;8.75;;
56267;SDS011;42175;46.930;9.532;2023-09-08T03:38:44;10.57;;;9.25;;
56267;SDS011;42175;46.930;9.532;2023-09-08T03:41:10;10.60;;;9.38;;
56267;SDS011;42175;46.930;9.532;2023-09-08T03:43:36;10.18;;;9.18;;
56267;SDS011;42175;46.930;9.532;2023-09-08T03:46:01;13.07;;;9.98;;
56267;SDS011;42175;46.930;9.532;2023-09-08T03:48:27;12.30;;;9.30;;
56267;SDS011;42175;46.930;9.532;2023-09-08T03:50:53;11.70;;;10.02;;
56267;SDS011;42175;46.930;9.532;2023-09-08T03:53:19;13.32;;;9.35;;
56267;SDS011;42175;46.930;9.532;2023-09-08T03:55:45;14.88;;;10.07;;
56267;SDS011;42175;46.930;9.532;2023-09-08T03:58:10;10.90;;;9.68;;
56267;SDS011;42175;46.930;9.532;2023-09-08T04:00:36;12.88;;;9.60;;
56267;SDS011;42175;46.930;9.532;2023-09-08T04:03:02;16.40;;;10.57;;
56267;SDS011;42175;46.930;9.532;2023-09-08T04:05:28;19.80;;;10.00;;
56267;SDS011;42175;46.930;9.532;2023-09-08T04:07:54;14.02;;;9.82;;
56267;SDS011;42175;46.930;9.532;2023-09-08T04:10:20;15.60;;;11.52;;
56267;SDS011;42175;46.930;9.532;2023-09-08T04:12:45;22.25;;;9.90;;
56267;SDS011;42175;46.930;9.532;2023-09-08T04:15:11;13.25;;;9.27;;
56267;SDS011;42175;46.930;9.532;2023-09-08T04:17:37;19.67;;;10.20;;
56267;SDS011;42175;46.930;9.532;2023-09-08T04:20:03;20.58;;;9.88;;
56267;SDS011;42175;46.930;9.532;2023-09-08T04:22:30;14.45;;;9.05;;
56267;SDS011;42175;46.930;9.532;2023-09-08T04:24:57;30.52;;;10.02;;
56267;SDS011;42175;46.930;9.532;2023-09-08T04:27:23;18.48;;;10.05;;
56267;SDS011;42175;46.930;9.532;2023-09-08T04:29:49;11.07;;;8.90;;
56267;SDS011;42175;46.930;9.532;2023-09-08T04:32:15;10.60;;;8.93;;
56267;SDS011;42175;46.930;9.532;2023-09-08T04:34:41;22.15;;;9.23;;
56267;SDS011;42175;46.930;9.532;2023-09-08T04:37:08;10.80;;;8.38;;
56267;SDS011;42175;46.930;9.532;2023-09-08T04:39:34;13.00;;;9.63;;
56267;SDS011;42175;46.930;9.532;2023-09-08T04:42:02;11.27;;;9.35;;
56267;SDS011;42175;46.930;9.532;2023-09-08T04:44:28;15.63;;;9.50;;
56267;SDS011;42175;46.930;9.532;2023-09-08T04:46:54;16.25;;;9.48;;
56267;SDS011;42175;46.930;9.532;2023-09-08T04:49:20;19.92;;;9.98;;
56267;SDS011;42175;46.930;9.532;2023-09-08T04:51:46;11.57;;;10.35;;
56267;SDS011;42175;46.930;9.532;2023-09-08T04:54:12;12.63;;;9.63;;
56267;SDS011;42175;46.930;9.532;2023-09-08T04:56:38;12.52;;;9.27;;
56267;SDS011;42175;46.930;9.532;2023-09-08T04:59:05;14.82;;;9.07;;
56267;SDS011;42175;46.930;9.532;2023-09-08T05:01:31;10.68;;;8.27;;
56267;SDS011;42175;46.930;9.532;2023-09-08T05:04:00;11.00;;;7.97;;
56267;SDS011;42175;46.930;9.532;2023-09-08T05:06:26;10.63;;;8.00;;
56267;SDS011;42175;46.930;9.532;2023-09-08T05:08:51;16.40;;;8.98;;
56267;SDS011;42175;46.930;9.532;2023-09-08T05:11:17;10.57;;;8.90;;
56267;SDS011;42175;46.930;9.532;2023-09-08T05:13:44;15.23;;;9.23;;
56267;SDS011;42175;46.930;9.532;2023-09-08T05:16:11;10.77;;;8.57;;
56267;SDS011;42175;46.930;9.532;2023-09-08T05:18:40;16.33;;;9.32;;
56267;SDS011;42175;46.930;9.532;2023-09-08T05:21:07;14.02;;;9.00;;
56267;SDS011;42175;46.930;9.532;2023-09-08T05:23:33;13.70;;;9.13;;
56267;SDS011;42175;46.930;9.532;2023-09-08T05:25:59;10.95;;;8.93;;
56267;SDS011;42175;46.930;9.532;2023-09-08T05:28:25;15.10;;;10.13;;
56267;SDS011;42175;46.930;9.532;2023-09-08T05:30:51;13.88;;;8.77;;
56267;SDS011;42175;46.930;9.532;2023-09-08T05:33:18;15.20;;;9.63;;
56267;SDS011;42175;46.930;9.532;2023-09-08T05:35:44;11.55;;;8.55;;
56267;SDS011;42175;46.930;9.532;2023-09-08T05:38:11;13.15;;;9.45;;
56267;SDS011;42175;46.930;9.532;2023-09-08T05:40:37;14.43;;;9.25;;
56267;SDS011;42175;46.930;9.532;2023-09-08T05:43:03;13.52;;;9.25;;
56267;SDS011;42175;46.930;9.532;2023-09-08T05:45:31;15.57;;;9.50;;
56267;SDS011;42175;46.930;9.532;2023-09-08T05:47:57;12.95;;;9.45;;
56267;SDS011;42175;46.930;9.532;2023-09-08T05:50:23;16.65;;;9.05;;
56267;SDS011;42175;46.930;9.532;2023-09-08T05:52:49;14.52;;;9.43;;
56267;SDS011;42175;46.930;9.532;2023-09-08T05:55:16;18.73;;;10.45;;
56267;SDS011;42175;46.930;9.532;2023-09-08T05:57:41;11.57;;;9.02;;
56267;SDS011;42175;46.930;9.532;2023-09-08T06:00:07;11.38;;;9.55;;
56267;SDS011;42175;46.930;9.532;2023-09-08T06:02:34;13.70;;;9.65;;
56267;SDS011;42175;46.930;9.532;2023-09-08T06:04:59;13.48;;;9.18;;
56267;SDS011;42175;46.930;9.532;2023-09-08T06:07:25;12.60;;;9.85;;
56267;SDS011;42175;46.930;9.532;2023-09-08T06:09:51;16.00;;;10.45;;
56267;SDS011;42175;46.930;9.532;2023-09-08T06:12:16;13.90;;;10.50;;
56267;SDS011;42175;46.930;9.532;2023-09-08T06:14:42;18.10;;;10.52;;
56267;SDS011;42175;46.930;9.532;2023-09-08T06:17:09;16.50;;;10.45;;
56267;SDS011;42175;46.930;9.532;2023-09-08T06:19:35;17.60;;;10.68;;
56267;SDS011;42175;46.930;9.532;2023-09-08T06:22:00;25.15;;;11.10;;
56267;SDS011;42175;46.930;9.532;2023-09-08T06:24:26;22.33;;;11.63;;
56267;SDS011;42175;46.930;9.532;2023-09-08T06:26:52;18.15;;;10.88;;
56267;SDS011;42175;46.930;9.532;2023-09-08T06:29:17;14.45;;;10.45;;
56267;SDS011;42175;46.930;9.532;2023-09-08T06:31:43;17.48;;;11.15;;
56267;SDS011;42175;46.930;9.532;2023-09-08T06:34:09;15.68;;;11.05;;
56267;SDS011;42175;46.930;9.532;2023-09-08T06:36:34;21.42;;;10.32;;
56267;SDS011;42175;46.930;9.532;2023-09-08T06:39:01;16.73;;;10.70;;
56267;SDS011;42175;46.930;9.532;2023-09-08T06:41:27;18.60;;;10.63;;
56267;SDS011;42175;46.930;9.532;2023-09-08T06:43:54;18.20;;;10.50;;
56267;SDS011;42175;46.930;9.532;2023-09-08T06:46:19;17.15;;;11.13;;
56267;SDS011;42175;46.930;9.532;2023-09-08T06:48:45;20.70;;;10.55;;
56267;SDS011;42175;46.930;9.532;2023-09-08T06:51:11;16.10;;;10.45;;
56267;SDS011;42175;46.930;9.532;2023-09-08T06:53:36;15.90;;;11.40;;
56267;SDS011;42175;46.930;9.532;2023-09-08T06:56:02;15.63;;;10.45;;
56267;SDS011;42175;46.930;9.532;2023-09-08T06:58:28;20.55;;;10.95;;
56267;SDS011;42175;46.930;9.532;2023-09-08T07:00:54;16.92;;;10.90;;
56267;SDS011;42175;46.930;9.532;2023-09-08T07:03:20;13.40;;;10.55;;
56267;SDS011;42175;46.930;9.532;2023-09-08T07:05:49;15.05;;;10.63;;
56267;SDS011;42175;46.930;9.532;2023-09-08T07:08:15;22.08;;;11.70;;
56267;SDS011;42175;46.930;9.532;2023-09-08T07:10:43;15.82;;;10.70;;
56267;SDS011;42175;46.930;9.532;2023-09-08T07:13:09;15.75;;;10.52;;
56267;SDS011;42175;46.930;9.532;2023-09-08T07:15:35;16.10;;;10.23;;
56267;SDS011;42175;46.930;9.532;2023-09-08T07:18:01;19.23;;;11.68;;
56267;SDS011;42175;46.930;9.532;2023-09-08T07:20:27;17.92;;;10.65;;
56267;SDS011;42175;46.930;9.532;2023-09-08T07:22:53;17.42;;;11.30;;
56267;SDS011;42175;46.930;9.532;2023-09-08T07:25:19;18.42;;;10.02;;
56267;SDS011;42175;46.930;9.532;2023-09-08T07:27:45;14.55;;;10.38;;
56267;SDS011;42175;46.930;9.532;2023-09-08T07:30:11;11.63;;;9.88;;
56267;SDS011;42175;46.930;9.532;2023-09-08T07:32:37;15.77;;;11.27;;
56267;SDS011;42175;46.930;9.532;2023-09-08T07:35:03;13.10;;;11.10;;
56267;SDS011;42175;46.930;9.532;2023-09-08T07:37:29;15.82;;;10.60;;
56267;SDS011;42175;46.930;9.532;2023-09-08T07:39:54;16.80;;;10.43;;
56267;SDS011;42175;46.930;9.532;2023-09-08T07:42:20;12.93;;;10.68;;
56267;SDS011;42175;46.930;9.532;2023-09-08T07:44:47;14.65;;;10.43;;
56267;SDS011;42175;46.930;9.532;2023-09-08T07:47:12;15.85;;;10.02;;
56267;SDS011;42175;46.930;9.532;2023-09-08T07:49:38;15.45;;;10.88;;
56267;SDS011;42175;46.930;9.532;2023-09-08T07:52:04;17.90;;;10.70;;
56267;SDS011;42175;46.930;9.532;2023-09-08T07:54:32;13.35;;;10.70;;
56267;SDS011;42175;46.930;9.532;2023-09-08T07:56:58;16.00;;;10.23;;
56267;SDS011;42175;46.930;9.532;2023-09-08T07:59:23;16.70;;;11.35;;
56267;SDS011;42175;46.930;9.532;2023-09-08T08:01:49;15.23;;;10.98;;
56267;SDS011;42175;46.930;9.532;2023-09-08T08:04:15;17.27;;;9.85;;
56267;SDS011;42175;46.930;9.532;2023-09-08T08:06:41;16.00;;;10.55;;
56267;SDS011;42175;46.930;9.532;2023-09-08T08:09:07;14.50;;;10.88;;
56267;SDS011;42175;46.930;9.532;2023-09-08T08:11:32;16.00;;;10.80;;
56267;SDS011;42175;46.930;9.532;2023-09-08T08:13:59;16.73;;;10.43;;
56267;SDS011;42175;46.930;9.532;2023-09-08T08:16:26;18.35;;;11.18;;
56267;SDS011;42175;46.930;9.532;2023-09-08T08:18:52;21.00;;;12.07;;
56267;SDS011;42175;46.930;9.532;2023-09-08T08:21:17;22.48;;;12.23;;
56267;SDS011;42175;46.930;9.532;2023-09-08T08:23:43;27.65;;;11.45;;
56267;SDS011;42175;46.930;9.532;2023-09-08T08:26:09;20.38;;;10.98;;
56267;SDS011;42175;46.930;9.532;2023-09-08T08:28:34;24.35;;;11.90;;
56267;SDS011;42175;46.930;9.532;2023-09-08T08:31:00;17.17;;;11.52;;
56267;SDS011;42175;46.930;9.532;2023-09-08T08:33:26;19.67;;;10.82;;
56267;SDS011;42175;46.930;9.532;2023-09-08T08:35:52;22.95;;;10.73;;
56267;SDS011;42175;46.930;9.532;2023-09-08T08:38:19;15.68;;;11.48;;
56267;SDS011;42175;46.930;9.532;2023-09-08T08:40:44;13.77;;;10.40;;
56267;SDS011;42175;46.930;9.532;2023-09-08T08:43:11;18.60;;;10.73;;
56267;SDS011;42175;46.930;9.532;2023-09-08T08:45:37;18.02;;;10.80;;
56267;SDS011;42175;46.930;9.532;2023-09-08T08:48:04;16.90;;;10.98;;
56267;SDS011;42175;46.930;9.532;2023-09-08T08:50:34;14.80;;;10.55;;
56267;SDS011;42175;46.930;9.532;2023-09-08T08:53:01;16.67;;;11.00;;
56267;SDS011;42175;46.930;9.532;2023-09-08T08:55:28;15.65;;;10.90;;
56267;SDS011;42175;46.930;9.532;2023-09-08T08:57:58;23.45;;;11.40;;
56267;SDS011;42175;46.930;9.532;2023-09-08T09:00:28;19.80;;;11.63;;
56267;SDS011;42175;46.930;9.532;2023-09-08T09:02:55;16.83;;;11.38;;
56267;SDS011;42175;46.930;9.532;2023-09-08T09:05:23;15.98;;;11.32;;
56267;SDS011;42175;46.930;9.532;2023-09-08T09:07:49;22.27;;;11.07;;
56267;SDS011;42175;46.930;9.532;2023-09-08T09:10:16;22.77;;;10.88;;
56267;SDS011;42175;46.930;9.532;2023-09-08T09:12:42;19.15;;;10.13;;
56267;SDS011;42175;46.930;9.532;2023-09-08T09:15:08;13.35;;;10.15;;
56267;SDS011;42175;46.930;9.532;2023-09-08T09:17:34;14.93;;;10.48;;
56267;SDS011;42175;46.930;9.532;2023-09-08T09:22:40;13.68;;;10.30;;
56267;SDS011;42175;46.930;9.532;2023-09-08T09:25:06;17.95;;;10.85;;
56267;SDS011;42175;46.930;9.532;2023-09-08T09:27:33;18.48;;;10.52;;
56267;SDS011;42175;46.930;9.532;2023-09-08T09:30:02;14.80;;;10.73;;
56267;SDS011;42175;46.930;9.532;2023-09-08T09:32:28;19.83;;;11.60;;
56267;SDS011;42175;46.930;9.532;2023-09-08T09:34:56;16.10;;;10.65;;
56267;SDS011;42175;46.930;9.532;2023-09-08T09:37:26;16.25;;;11.20;;
56267;SDS011;42175;46.930;9.532;2023-09-08T09:39:53;15.57;;;11.68;;
56267;SDS011;42175;46.930;9.532;2023-09-08T09:42:19;22.15;;;11.63;;
56267;SDS011;42175;46.930;9.532;2023-09-08T09:44:47;18.15;;;10.57;;
56267;SDS011;42175;46.930;9.532;2023-09-08T09:47:13;16.90;;;11.60;;
56267;SDS011;42175;46.930;9.532;2023-09-08T09:49:50;16.70;;;10.95;;
56267;SDS011;42175;46.930;9.532;2023-09-08T09:52:22;18.25;;;11.02;;
56267;SDS011;42175;46.930;9.532;2023-09-08T09:54:51;20.40;;;11.60;;
56267;SDS011;42175;46.930;9.532;2023-09-08T09:57:20;14.82;;;10.52;;
56267;SDS011;42175;46.930;9.532;2023-09-08T09:59:47;15.20;;;10.77;;
56267;SDS011;42175;46.930;9.532;2023-09-08T10:02:16;14.00;;;10.57;;
56267;SDS011;42175;46.930;9.532;2023-09-08T10:04:49;15.23;;;10.52;;
56267;SDS011;42175;46.930;9.532;2023-09-08T10:07:15;13.82;;;10.55;;
56267;SDS011;42175;46.930;9.532;2023-09-08T10:09:42;19.42;;;11.07;;
56267;SDS011;42175;46.930;9.532;2023-09-08T10:12:08;15.77;;;10.60;;
56267;SDS011;42175;46.930;9.532;2023-09-08T10:14:38;19.40;;;11.73;;
56267;SDS011;42175;46.930;9.532;2023-09-08T10:17:08;18.02;;;10.80;;
56267;SDS011;42175;46.930;9.532;2023-09-08T10:19:40;14.20;;;11.18;;
56267;SDS011;42175;46.930;9.532;2023-09-08T10:22:08;19.27;;;10.18;;
56267;SDS011;42175;46.930;9.532;2023-09-08T10:24:37;12.82;;;10.48;;
56267;SDS011;42175;46.930;9.532;2023-09-08T10:29:35;16.30;;;11.20;;
56267;SDS011;42175;46.930;9.532;2023-09-08T10:32:01;20.40;;;10.70;;
56267;SDS011;42175;46.930;9.532;2023-09-08T10:34:29;15.68;;;10.95;;
56267;SDS011;42175;46.930;9.532;2023-09-08T10:36:57;19.40;;;11.18;;
56267;SDS011;42175;46.930;9.532;2023-09-08T10:47:22;17.73;;;10.80;;
56267;SDS011;42175;46.930;9.532;2023-09-08T10:49:56;15.48;;;11.27;;
56267;SDS011;42175;46.930;9.532;2023-09-08T10:52:22;18.75;;;11.27;;
56267;SDS011;42175;46.930;9.532;2023-09-08T10:54:52;13.50;;;11.02;;
56267;SDS011;42175;46.930;9.532;2023-09-08T10:57:21;17.52;;;11.13;;
56267;SDS011;42175;46.930;9.532;2023-09-08T10:59:51;17.27;;;10.70;;
56267;SDS011;42175;46.930;9.532;2023-09-08T11:05:00;12.65;;;10.15;;
56267;SDS011;42175;46.930;9.532;2023-09-08T11:07:26;15.55;;;12.65;;
56267;SDS011;42175;46.930;9.532;2023-09-08T11:09:51;25.20;;;13.50;;
56267;SDS011;42175;46.930;9.532;2023-09-08T11:12:17;40.10;;;21.40;;
56267;SDS011;42175;46.930;9.532;2023-09-08T11:14:43;22.13;;;14.32;;
56267;SDS011;42175;46.930;9.532;2023-09-08T11:17:08;20.33;;;14.00;;
56267;SDS011;42175;46.930;9.532;2023-09-08T11:19:47;18.00;;;12.48;;
56267;SDS011;42175;46.930;9.532;2023-09-08T11:22:16;21.08;;;13.70;;
56267;SDS011;42175;46.930;9.532;2023-09-08T11:24:43;25.92;;;13.82;;
56267;SDS011;42175;46.930;9.532;2023-09-08T11:27:10;20.83;;;14.55;;
56267;SDS011;42175;46.930;9.532;2023-09-08T11:29:36;17.50;;;12.90;;
56267;SDS011;42175;46.930;9.532;2023-09-08T11:32:06;15.15;;;12.35;;
56267;SDS011;42175;46.930;9.532;2023-09-08T11:34:35;18.45;;;13.07;;
56267;SDS011;42175;46.930;9.532;2023-09-08T11:37:14;16.15;;;11.90;;
56267;SDS011;42175;46.930;9.532;2023-09-08T11:39:42;19.52;;;12.73;;
56267;SDS011;42175;46.930;9.532;2023-09-08T11:42:11;16.20;;;11.32;;
56267;SDS011;42175;46.930;9.532;2023-09-08T11:44:37;15.05;;;11.70;;
56267;SDS011;42175;46.930;9.532;2023-09-08T11:47:04;16.27;;;11.68;;
56267;SDS011;42175;46.930;9.532;2023-09-08T11:49:33;14.98;;;12.90;;
56267;SDS011;42175;46.930;9.532;2023-09-08T11:52:03;16.15;;;12.25;;
56267;SDS011;42175;46.930;9.532;2023-09-08T11:54:30;20.80;;;12.65;;
56267;SDS011;42175;46.930;9.532;2023-09-08T11:57:01;14.95;;;12.15;;
56267;SDS011;42175;46.930;9.532;2023-09-08T11:59:28;17.13;;;12.70;;
56267;SDS011;42175;46.930;9.532;2023-09-08T12:01:56;22.60;;;12.68;;
56267;SDS011;42175;46.930;9.532;2023-09-08T12:04:22;18.23;;;12.63;;
56267;SDS011;42175;46.930;9.532;2023-09-08T12:06:49;14.13;;;12.43;;
56267;SDS011;42175;46.930;9.532;2023-09-08T12:09:16;17.20;;;11.85;;
56267;SDS011;42175;46.930;9.532;2023-09-08T12:11:42;19.25;;;13.23;;
56267;SDS011;42175;46.930;9.532;2023-09-08T12:14:10;16.48;;;12.45;;
56267;SDS011;42175;46.930;9.532;2023-09-08T12:16:37;17.35;;;13.18;;
56267;SDS011;42175;46.930;9.532;2023-09-08T12:19:03;16.92;;;12.48;;
56267;SDS011;42175;46.930;9.532;2023-09-08T12:21:29;15.05;;;12.48;;
56267;SDS011;42175;46.930;9.532;2023-09-08T12:23:57;21.63;;;12.65;;
56267;SDS011;42175;46.930;9.532;2023-09-08T12:26:26;19.23;;;12.50;;
56267;SDS011;42175;46.930;9.532;2023-09-08T12:28:52;20.83;;;13.05;;
56267;SDS011;42175;46.930;9.532;2023-09-08T12:31:19;15.52;;;12.40;;
56267;SDS011;42175;46.930;9.532;2023-09-08T12:33:46;18.60;;;12.57;;
56267;SDS011;42175;46.930;9.532;2023-09-08T12:38:40;18.20;;;12.63;;
56267;SDS011;42175;46.930;9.532;2023-09-08T12:41:11;13.35;;;11.40;;
56267;SDS011;42175;46.930;9.532;2023-09-08T12:43:37;15.68;;;12.63;;
56267;SDS011;42175;46.930;9.532;2023-09-08T12:46:02;14.63;;;12.48;;
56267;SDS011;42175;46.930;9.532;2023-09-08T12:48:28;16.30;;;12.15;;
56267;SDS011;42175;46.930;9.532;2023-09-08T12:50:54;19.20;;;12.57;;
56267;SDS011;42175;46.930;9.532;2023-09-08T12:53:19;13.32;;;11.93;;
56267;SDS011;42175;46.930;9.532;2023-09-08T12:55:46;27.45;;;16.00;;
56267;SDS011;42175;46.930;9.532;2023-09-08T12:58:13;54.63;;;23.95;;
56267;SDS011;42175;46.930;9.532;2023-09-08T13:00:38;47.85;;;23.48;;
56267;SDS011;42175;46.930;9.532;2023-09-08T13:03:04;47.25;;;23.08;;
56267;SDS011;42175;46.930;9.532;2023-09-08T13:05:30;41.15;;;20.48;;
56267;SDS011;42175;46.930;9.532;2023-09-08T13:07:56;29.75;;;18.20;;
56267;SDS011;42175;46.930;9.532;2023-09-08T13:10:22;26.33;;;15.27;;
56267;SDS011;42175;46.930;9.532;2023-09-08T13:12:48;16.77;;;13.23;;
56267;SDS011;42175;46.930;9.532;2023-09-08T13:15:14;14.48;;;12.73;;
56267;SDS011;42175;46.930;9.532;2023-09-08T13:17:40;22.17;;;14.63;;
56267;SDS011;42175;46.930;9.532;2023-09-08T13:20:06;18.38;;;14.77;;
56267;SDS011;42175;46.930;9.532;2023-09-08T13:22:32;16.10;;;13.25;;
56267;SDS011;42175;46.930;9.532;2023-09-08T13:24:58;25.23;;;14.10;;
56267;SDS011;42175;46.930;9.532;2023-09-08T13:27:24;18.27;;;14.32;;
56267;SDS011;42175;46.930;9.532;2023-09-08T13:29:49;18.50;;;13.55;;
56267;SDS011;42175;46.930;9.532;2023-09-08T13:32:15;13.95;;;12.45;;
56267;SDS011;42175;46.930;9.532;2023-09-08T13:34:41;17.67;;;13.23;;
56267;SDS011;42175;46.930;9.532;2023-09-08T13:37:08;13.32;;;11.93;;
56267;SDS011;42175;46.930;9.532;2023-09-08T13:39:34;15.85;;;13.73;;
56267;SDS011;42175;46.930;9.532;2023-09-08T13:42:00;20.10;;;13.88;;
56267;SDS011;42175;46.930;9.532;2023-09-08T13:44:27;17.00;;;13.82;;
56267;SDS011;42175;46.930;9.532;2023-09-08T13:46:53;25.10;;;13.50;;
56267;SDS011;42175;46.930;9.532;2023-09-08T13:49:20;16.55;;;13.02;;
56267;SDS011;42175;46.930;9.532;2023-09-08T13:51:47;20.15;;;13.18;;
56267;SDS011;42175;46.930;9.532;2023-09-08T13:54:16;19.38;;;12.85;;
56267;SDS011;42175;46.930;9.532;2023-09-08T13:56:42;18.50;;;13.85;;
56267;SDS011;42175;46.930;9.532;2023-09-08T13:59:08;23.02;;;13.85;;
56267;SDS011;42175;46.930;9.532;2023-09-08T14:01:37;21.92;;;13.10;;
56267;SDS011;42175;46.930;9.532;2023-09-08T14:04:03;19.85;;;13.50;;
56267;SDS011;42175;46.930;9.532;2023-09-08T14:06:31;17.45;;;13.45;;
56267;SDS011;42175;46.930;9.532;2023-09-08T14:08:57;19.85;;;12.70;;
56267;SDS011;42175;46.930;9.532;2023-09-08T14:11:23;24.45;;;12.90;;
56267;SDS011;42175;46.930;9.532;2023-09-08T14:13:49;18.02;;;12.75;;
56267;SDS011;42175;46.930;9.532;2023-09-08T14:16:17;19.58;;;14.15;;
56267;SDS011;42175;46.930;9.532;2023-09-08T14:18:43;21.13;;;12.50;;
56267;SDS011;42175;46.930;9.532;2023-09-08T14:21:09;18.30;;;13.93;;
56267;SDS011;42175;46.930;9.532;2023-09-08T14:23:35;18.35;;;12.55;;
56267;SDS011;42175;46.930;9.532;2023-09-08T14:26:02;19.92;;;12.70;;
56267;SDS011;42175;46.930;9.532;2023-09-08T14:28:28;28.30;;;13.38;;
56267;SDS011;42175;46.930;9.532;2023-09-08T14:30:57;15.80;;;12.90;;
56267;SDS011;42175;46.930;9.532;2023-09-08T14:33:23;20.05;;;13.48;;
56267;SDS011;42175;46.930;9.532;2023-09-08T14:35:48;17.75;;;13.27;;
56267;SDS011;42175;46.930;9.532;2023-09-08T14:38:22;19.23;;;13.65;;
56267;SDS011;42175;46.930;9.532;2023-09-08T14:40:59;26.10;;;13.83;;
56267;SDS011;42175;46.930;9.532;2023-09-08T14:43:27;17.15;;;13.45;;
56267;SDS011;42175;46.930;9.532;2023-09-08T14:45:53;14.60;;;12.90;;
56267;SDS011;42175;46.930;9.532;2023-09-08T14:48:22;16.00;;;12.98;;